createdAt,value
2023-04-26T00:01:39.825Z,98284.73
2023-04-26T00:06:41.684Z,98275.16
2023-04-26T00:11:43.362Z,98278.09
2023-04-26T00:16:45.074Z,98287.45
2023-04-26T00:21:47.023Z,98291.80
2023-04-26T00:26:48.730Z,98298.23
2023-04-26T00:31:50.549Z,98303.31
2023-04-26T00:36:52.748Z,98301.73
2023-04-26T00:41:54.847Z,98302.02
2023-04-26T00:46:56.615Z,98306.17
2023-04-26T00:51:59.114Z,98315.11
2023-04-26T00:57:00.957Z,98319.08
2023-04-26T01:02:03.761Z,98328.30
2023-04-26T01:07:05.729Z,98331.27
2023-04-26T01:12:09.130Z,98328.45
2023-04-26T01:17:10.926Z,98333.17
2023-04-26T01:22:14.836Z,98333.44
2023-04-26T01:27:17.824Z,98341.41
2023-04-26T01:32:19.742Z,98344.39
2023-04-26T01:37:21.422Z,98345.35
2023-04-26T01:42:23.052Z,98347.38
2023-04-26T01:47:26.678Z,98350.61
2023-04-26T01:52:28.507Z,98351.24
2023-04-26T01:57:30.188Z,98356.04
2023-04-26T02:02:32.065Z,98357.35
2023-04-26T02:07:33.979Z,98359.80
2023-04-26T02:12:35.995Z,98368.21
2023-04-26T02:17:38.623Z,98367.77
2023-04-26T02:22:40.608Z,98366.27
2023-04-26T02:27:42.276Z,98361.48
2023-04-26T02:32:43.941Z,98360.61
2023-04-26T02:37:49.149Z,98357.54
2023-04-26T02:42:51.457Z,98357.58
2023-04-26T02:47:53.852Z,98360.95
2023-04-26T02:52:56.311Z,98361.32
2023-04-26T02:57:58.104Z,98361.32
2023-04-26T03:03:00.364Z,98364.33
2023-04-26T03:08:02.477Z,98368.85
2023-04-26T03:13:05.485Z,98378.34
2023-04-26T03:18:07.545Z,98376.33
2023-04-26T03:23:09.411Z,98383.30
2023-04-26T03:28:11.966Z,98387.66
2023-04-26T03:33:14.032Z,98394.23
2023-04-26T03:38:16.266Z,98398.21
2023-04-26T03:43:18.368Z,98402.83
2023-04-26T03:48:20.057Z,98413.82
2023-04-26T03:53:21.996Z,98416.84
2023-04-26T03:58:26.050Z,98416.71
2023-04-26T04:07:13.586Z,98425.94
2023-04-26T04:12:15.586Z,98433.54
2023-04-26T04:17:19.315Z,98438.73
2023-04-26T04:22:21.212Z,98445.97
2023-04-26T04:27:22.801Z,98449.84
2023-04-26T04:32:24.890Z,98447.15
2023-04-26T04:37:28.690Z,98451.42
2023-04-26T04:42:30.580Z,98456.27
2023-04-26T04:47:34.144Z,98457.89
2023-04-26T04:52:36.811Z,98460.21
2023-04-26T04:57:40.100Z,98461.85
2023-04-26T05:02:43.459Z,98467.27
2023-04-26T05:07:45.454Z,98467.71
2023-04-26T05:12:48.390Z,98467.48
2023-04-26T05:17:51.285Z,98468.61
2023-04-26T05:22:56.695Z,98468.47
2023-04-26T05:27:58.509Z,98472.73
2023-04-26T05:33:23.606Z,98472.54
2023-04-26T05:38:43.786Z,98483.06
2023-04-26T05:43:47.674Z,98485.66
2023-04-26T05:48:49.718Z,98485.02
2023-04-26T05:53:52.294Z,98482.85
2023-04-26T05:58:54.612Z,98485.92
2023-04-26T06:03:59.887Z,98489.80
2023-04-26T06:09:05.785Z,98490.23
2023-04-26T06:14:14.223Z,98503.55
2023-04-26T06:19:21.941Z,98519.35
2023-04-26T06:24:25.408Z,98522.73
2023-04-26T06:29:27.332Z,98518.94
2023-04-26T06:34:29.188Z,98523.35
2023-04-26T06:39:30.990Z,98524.20
2023-04-26T06:44:33.016Z,98519.06
2023-04-26T06:49:37.652Z,98524.73
2023-04-26T06:54:45.988Z,98513.35
2023-04-26T06:59:55.854Z,98526.64
2023-04-26T07:04:57.767Z,98528.53
2023-04-26T07:09:59.646Z,98531.08
2023-04-26T07:15:01.596Z,98529.91
2023-04-26T07:20:04.235Z,98537.06
2023-04-26T07:25:06.354Z,98535.88
2023-04-26T07:30:14.621Z,98538.40
2023-04-26T07:35:16.778Z,98544.80
2023-04-26T07:40:18.871Z,98550.86
2023-04-26T07:45:21.092Z,98549.23
2023-04-26T07:50:24.689Z,98545.41
2023-04-26T07:55:27.464Z,98549.66
2023-04-26T08:00:29.396Z,98550.77
2023-04-26T08:05:31.469Z,98549.89
2023-04-26T08:10:33.513Z,98554.48
2023-04-26T08:15:35.299Z,98549.27
2023-04-26T08:20:37.043Z,98549.83
2023-04-26T08:25:38.892Z,98552.05
2023-04-26T08:30:41.011Z,98558.27
2023-04-26T08:35:42.736Z,98565.96
2023-04-26T08:40:46.875Z,98565.85
2023-04-26T08:45:49.221Z,98568.31
2023-04-26T08:50:52.413Z,98567.08
2023-04-26T08:55:54.916Z,98562.70
2023-04-26T09:00:57.755Z,98572.70
2023-04-26T09:06:03.184Z,98565.64
2023-04-26T09:11:06.173Z,98556.75
2023-04-26T09:16:07.975Z,98572.95
2023-04-26T09:21:09.999Z,98573.88
2023-04-26T09:26:19.020Z,98578.05
2023-04-26T09:31:41.835Z,98573.08
2023-04-26T09:36:57.728Z,98569.34
2023-04-26T09:42:00.107Z,98582.95
2023-04-26T09:47:10.265Z,98576.80
2023-04-26T09:52:12.460Z,98565.58
2023-04-26T09:57:17.280Z,98557.75
2023-04-26T10:02:22.494Z,98552.52
2023-04-26T10:07:26.001Z,98562.55
2023-04-26T10:12:28.732Z,98561.05
2023-04-26T10:17:32.350Z,98563.60
2023-04-26T10:22:40.622Z,98568.69
2023-04-26T10:27:45.308Z,98558.86
2023-04-26T10:32:56.396Z,98560.37
2023-04-26T10:38:01.208Z,98568.59
2023-04-26T10:43:08.949Z,98566.20
2023-04-26T10:48:19.858Z,98566.55
2023-04-26T10:53:21.751Z,98558.30
2023-04-26T10:58:35.744Z,98555.33
2023-04-26T11:03:38.698Z,98565.52
2023-04-26T11:08:40.816Z,98571.39
2023-04-26T11:13:44.070Z,98571.24
2023-04-26T11:18:47.676Z,98572.34
2023-04-26T11:23:53.905Z,98568.37
2023-04-26T11:28:55.636Z,98566.45
2023-04-26T11:34:04.812Z,98552.96
2023-04-26T11:39:07.172Z,98553.13
2023-04-26T11:44:11.584Z,98567.67
2023-04-26T11:49:13.729Z,98571.62
2023-04-26T11:54:30.462Z,98577.84
2023-04-26T11:59:32.294Z,98580.35
2023-04-26T12:04:34.637Z,98571.52
2023-04-26T12:09:41.494Z,98575.48
2023-04-26T12:14:43.252Z,98564.11
2023-04-26T12:19:49.809Z,98588.73
2023-04-26T12:25:05.432Z,98580.00
2023-04-26T12:30:08.522Z,98578.10
2023-04-26T12:35:10.543Z,98589.99
2023-04-26T12:40:14.435Z,98580.53
2023-04-26T12:45:18.668Z,98580.95
2023-04-26T12:50:21.237Z,98586.20
2023-04-26T12:55:23.268Z,98593.16
2023-04-26T13:00:25.956Z,98585.27
2023-04-26T13:05:29.617Z,98588.54
2023-04-26T13:10:33.002Z,98591.43
2023-04-26T13:15:34.812Z,98592.58
2023-04-26T13:20:36.978Z,98591.88
2023-04-26T13:25:38.731Z,98597.52
2023-04-26T13:30:40.587Z,98617.33
2023-04-26T13:35:42.326Z,98621.98
2023-04-26T13:40:44.181Z,98631.09
2023-04-26T13:45:46.158Z,98625.48
2023-04-26T13:50:48.041Z,98621.84
2023-04-26T13:55:49.907Z,98613.37
2023-04-26T14:00:52.404Z,98610.67
2023-04-26T14:05:55.164Z,98613.23
2023-04-26T14:10:56.901Z,98613.09
2023-04-26T14:15:58.649Z,98615.49
2023-04-26T14:21:00.904Z,98616.84
2023-04-26T14:26:02.828Z,98622.36
2023-04-26T14:31:05.109Z,98622.16
2023-04-26T14:36:07.279Z,98635.41
2023-04-26T14:41:13.609Z,98644.96
2023-04-26T14:46:15.427Z,98639.48
2023-04-26T14:51:17.947Z,98630.55
2023-04-26T14:56:19.669Z,98633.14
2023-04-26T15:01:21.921Z,98631.34
2023-04-26T15:06:23.987Z,98637.75
2023-04-26T15:11:25.925Z,98644.22
2023-04-26T15:16:27.778Z,98648.98
2023-04-26T15:21:29.995Z,98658.19
2023-04-26T15:26:32.866Z,98661.52
2023-04-26T15:31:34.708Z,98656.77
2023-04-26T15:36:36.792Z,98648.70
2023-04-26T15:41:39.040Z,98651.58
2023-04-26T15:46:40.902Z,98653.96
2023-04-26T15:51:42.776Z,98657.98
2023-04-26T15:56:46.713Z,98659.29
2023-04-26T16:01:48.520Z,98652.78
2023-04-26T16:06:50.387Z,98663.24
2023-04-26T16:11:52.369Z,98661.77
2023-04-26T16:16:54.052Z,98662.86
2023-04-26T16:21:56.410Z,98669.60
2023-04-26T16:26:58.113Z,98674.52
2023-04-26T16:32:00.302Z,98686.32
2023-04-26T16:37:02.428Z,98691.58
2023-04-26T16:42:04.796Z,98701.55
2023-04-26T16:47:06.826Z,98698.13
2023-04-26T16:52:09.078Z,98699.19
2023-04-26T16:57:11.171Z,98698.91
2023-04-26T17:02:13.925Z,98704.86
2023-04-26T17:07:16.496Z,98708.23
2023-04-26T17:12:18.187Z,98710.42
2023-04-26T17:17:19.855Z,98720.06
2023-04-26T17:22:21.525Z,98726.36
2023-04-26T17:27:26.204Z,98734.29
2023-04-26T17:32:28.042Z,98731.52
2023-04-26T17:37:29.819Z,98731.71
2023-04-26T17:42:32.544Z,98735.68
2023-04-26T17:47:34.251Z,98741.30
2023-04-26T17:52:37.089Z,98749.36
2023-04-26T17:57:39.170Z,98758.45
2023-04-26T18:02:41.094Z,98764.58
2023-04-26T18:07:42.983Z,98765.84
2023-04-26T18:12:44.684Z,98768.52
2023-04-26T18:17:46.856Z,98775.49
2023-04-26T18:22:48.599Z,98780.19
2023-04-26T18:27:50.454Z,98784.20
2023-04-26T18:32:53.214Z,98789.51
2023-04-26T18:37:56.453Z,98797.84
2023-04-26T18:42:58.915Z,98804.33
2023-04-26T18:48:00.792Z,98808.52
2023-04-26T18:53:02.979Z,98815.98
2023-04-26T18:58:04.733Z,98818.86
2023-04-26T19:03:06.716Z,98824.29
2023-04-26T19:08:09.529Z,98830.11
2023-04-26T19:13:11.720Z,98833.25
2023-04-26T19:18:13.934Z,98834.73
2023-04-26T19:23:15.817Z,98829.73
2023-04-26T19:28:17.665Z,98829.20
2023-04-26T19:33:19.462Z,98834.33
2023-04-26T19:38:21.213Z,98835.06
2023-04-26T19:43:22.901Z,98834.98
2023-04-26T19:48:24.520Z,98838.58
2023-04-26T19:53:26.158Z,98837.42
2023-04-26T19:58:27.768Z,98836.70
2023-04-26T20:03:29.691Z,98843.94
2023-04-26T20:08:31.823Z,98851.28
2023-04-26T20:13:33.924Z,98851.84
2023-04-26T20:18:36.493Z,98855.07
2023-04-26T20:23:38.275Z,98860.27
2023-04-26T20:28:40.204Z,98859.94
2023-04-26T20:33:42.368Z,98862.61
2023-04-26T20:38:44.255Z,98863.98
2023-04-26T20:43:45.994Z,98863.51
2023-04-26T20:48:47.801Z,98867.22
2023-04-26T20:53:49.564Z,98868.81
2023-04-26T20:58:51.270Z,98869.27
2023-04-26T21:03:53.343Z,98874.20
2023-04-26T21:08:56.258Z,98878.55
2023-04-26T21:14:04.334Z,98879.91
2023-04-26T21:19:06.383Z,98881.72
2023-04-26T21:24:08.683Z,98888.86
2023-04-26T21:29:12.333Z,98890.31
2023-04-26T21:34:14.358Z,98897.98
2023-04-26T21:39:16.812Z,98901.67
2023-04-26T21:44:19.419Z,98907.05
2023-04-26T21:49:22.947Z,98906.95
2023-04-26T21:54:24.602Z,98910.58
2023-04-26T21:59:26.225Z,98914.92
2023-04-26T22:04:28.307Z,98911.17
2023-04-26T22:09:30.064Z,98918.80
2023-04-26T22:14:32.193Z,98925.73
2023-04-26T22:19:33.965Z,98927.21
2023-04-26T22:24:35.826Z,98928.96
2023-04-26T22:29:37.552Z,98928.05
2023-04-26T22:34:41.619Z,98934.48
2023-04-26T22:39:44.972Z,98935.44
2023-04-26T22:44:47.053Z,98931.02
2023-04-26T22:49:49.755Z,98934.92
2023-04-26T22:54:51.534Z,98937.77
2023-04-26T22:59:53.189Z,98940.10
2023-04-26T23:04:54.850Z,98942.25
2023-04-26T23:09:57.488Z,98944.63
2023-04-26T23:15:05.102Z,98946.98
2023-04-26T23:20:12.362Z,98946.32
2023-04-26T23:25:14.190Z,98947.84
2023-04-26T23:30:15.997Z,98951.80
2023-04-26T23:35:18.022Z,98955.92
2023-04-26T23:40:20.595Z,98960.84
2023-04-26T23:45:23.812Z,98967.66
2023-04-26T23:50:27.554Z,98972.65
2023-04-26T23:55:29.152Z,98968.32
